Weather at Dortmund Airport

Public forecast

Using degrees Celsius for public forecast. Weather courtesy of forecast.io.

Current aviation weather report (METAR) for Dortmund Airport

Retrieved 2020/11/26 03:20 UTC (3 minutes ago):

EDLW 260320Z AUTO 19007KT 9999 // OVC023/// 08/05 Q1019

Aviation forecast (TAF) for Dortmund Airport

Retrieved 2020/11/25 22:33 UTC (5 hours ago):

TAF TAF EDLW 252225Z 2522/2618 CNL